sensor_id;sensor_type;location;lat;lon;timestamp;temperature;humidity
22522;DHT22;11427;51.062;17.044;2023-02-28T00:12:43;1.10;99.90
22522;DHT22;11427;51.062;17.044;2023-02-28T00:27:45;1.10;99.90
22522;DHT22;11427;51.062;17.044;2023-02-28T00:42:47;1.00;99.90
22522;DHT22;11427;51.062;17.044;2023-02-28T00:57:49;1.10;99.90
22522;DHT22;11427;51.062;17.044;2023-02-28T01:12:51;1.40;99.90
22522;DHT22;11427;51.062;17.044;2023-02-28T01:27:54;1.30;99.90
22522;DHT22;11427;51.062;17.044;2023-02-28T01:42:56;1.20;99.90
22522;DHT22;11427;51.062;17.044;2023-02-28T01:58:00;1.20;99.90
22522;DHT22;11427;51.062;17.044;2023-02-28T02:44:03;1.10;99.90
22522;DHT22;11427;51.062;17.044;2023-02-28T02:59:09;1.20;99.90
22522;DHT22;11427;51.062;17.044;2023-02-28T03:14:28;0.90;99.90
22522;DHT22;11427;51.062;17.044;2023-02-28T03:45:01;1.10;99.90
22522;DHT22;11427;51.062;17.044;2023-02-28T04:00:14;1.30;99.90
22522;DHT22;11427;51.062;17.044;2023-02-28T04:15:17;0.90;99.90
22522;DHT22;11427;51.062;17.044;2023-02-28T04:30:19;0.80;99.90
22522;DHT22;11427;51.062;17.044;2023-02-28T04:45:21;0.90;99.90
22522;DHT22;11427;51.062;17.044;2023-02-28T05:00:23;1.10;99.90
22522;DHT22;11427;51.062;17.044;2023-02-28T05:15:25;1.00;99.90
22522;DHT22;11427;51.062;17.044;2023-02-28T05:30:27;0.90;99.90
22522;DHT22;11427;51.062;17.044;2023-02-28T05:45:29;0.80;99.90
22522;DHT22;11427;51.062;17.044;2023-02-28T06:00:31;1.00;99.90
22522;DHT22;11427;51.062;17.044;2023-02-28T06:15:33;1.00;99.90
22522;DHT22;11427;51.062;17.044;2023-02-28T06:30:37;0.90;99.90
22522;DHT22;11427;51.062;17.044;2023-02-28T06:45:43;1.10;99.90
22522;DHT22;11427;51.062;17.044;2023-02-28T07:00:45;1.80;99.90
22522;DHT22;11427;51.062;17.044;2023-02-28T07:15:58;2.00;99.90
22522;DHT22;11427;51.062;17.044;2023-02-28T07:31:08;2.20;96.10
22522;DHT22;11427;51.062;17.044;2023-02-28T07:46:13;2.50;94.50
22522;DHT22;11427;51.062;17.044;2023-02-28T08:01:18;4.30;91.40
22522;DHT22;11427;51.062;17.044;2023-02-28T08:16:21;5.80;81.60
22522;DHT22;11427;51.062;17.044;2023-02-28T08:31:24;6.70;78.50
22522;DHT22;11427;51.062;17.044;2023-02-28T08:46:26;7.00;75.10
22522;DHT22;11427;51.062;17.044;2023-02-28T09:01:28;5.60;74.70
22522;DHT22;11427;51.062;17.044;2023-02-28T09:16:32;5.40;78.70
22522;DHT22;11427;51.062;17.044;2023-02-28T09:31:35;6.90;76.00
22522;DHT22;11427;51.062;17.044;2023-02-28T09:46:40;6.30;76.10
22522;DHT22;11427;51.062;17.044;2023-02-28T10:02:06;5.80;79.60
22522;DHT22;11427;51.062;17.044;2023-02-28T10:17:18;5.50;81.00
22522;DHT22;11427;51.062;17.044;2023-02-28T10:32:31;5.50;80.60
22522;DHT22;11427;51.062;17.044;2023-02-28T10:47:36;5.20;79.60
22522;DHT22;11427;51.062;17.044;2023-02-28T11:02:40;5.00;82.20
22522;DHT22;11427;51.062;17.044;2023-02-28T12:19:41;5.50;80.40
22522;DHT22;11427;51.062;17.044;2023-02-28T12:34:50;5.10;82.50
22522;DHT22;11427;51.062;17.044;2023-02-28T12:50:06;5.30;83.60
22522;DHT22;11427;51.062;17.044;2023-02-28T13:20:52;5.20;86.00
22522;DHT22;11427;51.062;17.044;2023-02-28T13:51:38;5.00;86.80
22522;DHT22;11427;51.062;17.044;2023-02-28T14:06:55;4.70;90.00
22522;DHT22;11427;51.062;17.044;2023-02-28T14:37:37;4.70;90.30
22522;DHT22;11427;51.062;17.044;2023-02-28T14:52:43;4.60;90.90
22522;DHT22;11427;51.062;17.044;2023-02-28T15:07:46;4.40;89.40
22522;DHT22;11427;51.062;17.044;2023-02-28T15:22:50;4.20;88.90
22522;DHT22;11427;51.062;17.044;2023-02-28T15:37:56;4.30;89.80
22522;DHT22;11427;51.062;17.044;2023-02-28T15:53:03;4.10;90.30
22522;DHT22;11427;51.062;17.044;2023-02-28T16:08:14;4.10;90.50
22522;DHT22;11427;51.062;17.044;2023-02-28T16:23:16;3.90;91.30
22522;DHT22;11427;51.062;17.044;2023-02-28T16:38:18;3.50;94.70
22522;DHT22;11427;51.062;17.044;2023-02-28T16:53:21;3.40;96.20
22522;DHT22;11427;51.062;17.044;2023-02-28T17:08:25;3.00;97.40
22522;DHT22;11427;51.062;17.044;2023-02-28T17:23:30;2.50;98.60
22522;DHT22;11427;51.062;17.044;2023-02-28T17:38:32;2.40;99.90
22522;DHT22;11427;51.062;17.044;2023-02-28T17:53:34;2.40;99.90
22522;DHT22;11427;51.062;17.044;2023-02-28T18:08:36;2.30;99.90
22522;DHT22;11427;51.062;17.044;2023-02-28T18:23:38;2.20;99.90
22522;DHT22;11427;51.062;17.044;2023-02-28T18:38:48;1.80;99.90
22522;DHT22;11427;51.062;17.044;2023-02-28T18:53:51;1.60;99.90
22522;DHT22;11427;51.062;17.044;2023-02-28T19:08:55;1.60;99.90
22522;DHT22;11427;51.062;17.044;2023-02-28T19:23:57;1.40;99.90
22522;DHT22;11427;51.062;17.044;2023-02-28T19:38:59;1.20;99.90
22522;DHT22;11427;51.062;17.044;2023-02-28T19:54:01;1.00;99.90
22522;DHT22;11427;51.062;17.044;2023-02-28T20:09:04;0.90;99.90
22522;DHT22;11427;51.062;17.044;2023-02-28T20:24:06;0.70;99.90
22522;DHT22;11427;51.062;17.044;2023-02-28T20:39:08;0.90;99.90
22522;DHT22;11427;51.062;17.044;2023-02-28T20:54:10;0.80;99.90
22522;DHT22;11427;51.062;17.044;2023-02-28T21:09:14;0.40;99.90
22522;DHT22;11427;51.062;17.044;2023-02-28T21:24:18;0.40;99.90
22522;DHT22;11427;51.062;17.044;2023-02-28T21:39:22;0.40;99.90
22522;DHT22;11427;51.062;17.044;2023-02-28T21:54:26;0.50;99.90
22522;DHT22;11427;51.062;17.044;2023-02-28T22:09:28;0.20;99.90
22522;DHT22;11427;51.062;17.044;2023-02-28T22:24:30;0.40;99.90
22522;DHT22;11427;51.062;17.044;2023-02-28T22:39:32;0.00;99.90
22522;DHT22;11427;51.062;17.044;2023-02-28T22:54:34;0.10;99.90
22522;DHT22;11427;51.062;17.044;2023-02-28T23:09:36;-0.20;99.90
22522;DHT22;11427;51.062;17.044;2023-02-28T23:24:38;-0.30;99.90
22522;DHT22;11427;51.062;17.044;2023-02-28T23:39:40;-0.40;99.90
22522;DHT22;11427;51.062;17.044;2023-02-28T23:54:42;-0.30;99.90
